sensor_id;sensor_type;location;lat;lon;timestamp;pressure;altitude;pressure_sealevel;temperature;humidity
75536;BME280;64119;52.070;20.804;2023-04-03T00:01:19;100998.55;;;1.76;75.89
75536;BME280;64119;52.070;20.804;2023-04-03T00:03:47;100998.80;;;1.72;76.55
75536;BME280;64119;52.070;20.804;2023-04-03T00:06:15;101000.73;;;1.70;76.57
75536;BME280;64119;52.070;20.804;2023-04-03T00:08:43;101005.96;;;1.68;76.34
75536;BME280;64119;52.070;20.804;2023-04-03T00:11:11;101004.82;;;1.64;76.52
75536;BME280;64119;52.070;20.804;2023-04-03T00:13:39;101009.84;;;1.61;75.95
75536;BME280;64119;52.070;20.804;2023-04-03T00:16:08;101005.19;;;1.57;75.79
75536;BME280;64119;52.070;20.804;2023-04-03T00:18:37;101006.67;;;1.54;75.68
75536;BME280;64119;52.070;20.804;2023-04-03T00:21:06;101008.16;;;1.50;75.30
75536;BME280;64119;52.070;20.804;2023-04-03T00:23:34;101012.79;;;1.47;75.00
75536;BME280;64119;52.070;20.804;2023-04-03T00:26:02;101015.27;;;1.44;74.87
75536;BME280;64119;52.070;20.804;2023-04-03T00:28:30;101011.42;;;1.37;75.22
75536;BME280;64119;52.070;20.804;2023-04-03T00:30:58;101012.99;;;1.30;74.71
75536;BME280;64119;52.070;20.804;2023-04-03T00:33:26;101014.76;;;1.25;75.22
75536;BME280;64119;52.070;20.804;2023-04-03T00:35:54;101011.71;;;1.19;75.08
75536;BME280;64119;52.070;20.804;2023-04-03T00:38:22;101013.28;;;1.14;75.41
75536;BME280;64119;52.070;20.804;2023-04-03T00:40:50;101011.14;;;1.10;75.49
75536;BME280;64119;52.070;20.804;2023-04-03T00:43:23;101014.85;;;1.05;75.26
75536;BME280;64119;52.070;20.804;2023-04-03T00:45:53;101018.05;;;1.00;75.06
75536;BME280;64119;52.070;20.804;2023-04-03T00:48:29;101020.02;;;0.96;75.94
75536;BME280;64119;52.070;20.804;2023-04-03T00:50:59;101021.54;;;0.92;75.97
75536;BME280;64119;52.070;20.804;2023-04-03T00:53:52;101027.07;;;0.88;76.09
75536;BME280;64119;52.070;20.804;2023-04-03T00:56:25;101026.14;;;0.82;75.87
75536;BME280;64119;52.070;20.804;2023-04-03T00:59:10;101027.10;;;0.78;75.56
75536;BME280;64119;52.070;20.804;2023-04-03T01:01:39;101030.59;;;0.73;75.70
75536;BME280;64119;52.070;20.804;2023-04-03T01:07:04;101034.67;;;0.62;75.33
75536;BME280;64119;52.070;20.804;2023-04-03T01:09:33;101037.55;;;0.56;75.78
75536;BME280;64119;52.070;20.804;2023-04-03T01:12:19;101035.72;;;0.52;75.62
75536;BME280;64119;52.070;20.804;2023-04-03T01:14:50;101041.98;;;0.48;75.47
75536;BME280;64119;52.070;20.804;2023-04-03T01:17:30;101045.45;;;0.43;75.76
75536;BME280;64119;52.070;20.804;2023-04-03T01:22:47;101052.49;;;0.34;75.84
75536;BME280;64119;52.070;20.804;2023-04-03T01:25:22;101052.15;;;0.30;75.66
75536;BME280;64119;52.070;20.804;2023-04-03T01:27:50;101054.89;;;0.28;75.14
75536;BME280;64119;52.070;20.804;2023-04-03T01:30:20;101056.52;;;0.27;75.42
75536;BME280;64119;52.070;20.804;2023-04-03T01:32:50;101057.69;;;0.23;75.75
75536;BME280;64119;52.070;20.804;2023-04-03T01:35:18;101062.66;;;0.18;75.74
75536;BME280;64119;52.070;20.804;2023-04-03T01:37:46;101061.69;;;0.15;75.57
75536;BME280;64119;52.070;20.804;2023-04-03T01:40:14;101065.52;;;0.13;75.53
75536;BME280;64119;52.070;20.804;2023-04-03T01:42:42;101074.19;;;0.10;75.76
75536;BME280;64119;52.070;20.804;2023-04-03T01:45:09;101074.23;;;0.10;75.13
75536;BME280;64119;52.070;20.804;2023-04-03T01:47:37;101076.83;;;0.07;75.45
75536;BME280;64119;52.070;20.804;2023-04-03T01:50:06;101076.40;;;0.03;75.44
75536;BME280;64119;52.070;20.804;2023-04-03T01:52:34;101080.48;;;0.02;75.55
75536;BME280;64119;52.070;20.804;2023-04-03T01:55:02;101084.10;;;-0.03;75.65
75536;BME280;64119;52.070;20.804;2023-04-03T01:57:30;101083.79;;;-0.06;75.11
75536;BME280;64119;52.070;20.804;2023-04-03T01:59:58;101085.87;;;-0.09;75.72
75536;BME280;64119;52.070;20.804;2023-04-03T02:02:26;101086.64;;;-0.12;75.23
75536;BME280;64119;52.070;20.804;2023-04-03T02:04:54;101091.12;;;-0.14;75.45
75536;BME280;64119;52.070;20.804;2023-04-03T02:07:22;101091.70;;;-0.17;75.40
75536;BME280;64119;52.070;20.804;2023-04-03T02:09:50;101094.88;;;-0.21;75.44
75536;BME280;64119;52.070;20.804;2023-04-03T02:12:18;101094.86;;;-0.23;75.54
75536;BME280;64119;52.070;20.804;2023-04-03T02:14:46;101095.73;;;-0.26;75.44
75536;BME280;64119;52.070;20.804;2023-04-03T02:17:14;101097.96;;;-0.28;75.43
75536;BME280;64119;52.070;20.804;2023-04-03T02:19:42;101096.65;;;-0.32;75.56
75536;BME280;64119;52.070;20.804;2023-04-03T02:22:10;101101.41;;;-0.35;75.68
75536;BME280;64119;52.070;20.804;2023-04-03T02:24:38;101102.66;;;-0.38;75.73
75536;BME280;64119;52.070;20.804;2023-04-03T02:27:07;101103.77;;;-0.39;75.94
75536;BME280;64119;52.070;20.804;2023-04-03T02:29:35;101106.20;;;-0.42;75.94
75536;BME280;64119;52.070;20.804;2023-04-03T02:32:04;101107.35;;;-0.43;75.81
75536;BME280;64119;52.070;20.804;2023-04-03T02:34:33;101108.41;;;-0.46;75.81
75536;BME280;64119;52.070;20.804;2023-04-03T02:37:01;101110.81;;;-0.49;75.92
75536;BME280;64119;52.070;20.804;2023-04-03T02:39:29;101113.16;;;-0.52;75.94
75536;BME280;64119;52.070;20.804;2023-04-03T02:41:57;101115.03;;;-0.54;75.77
75536;BME280;64119;52.070;20.804;2023-04-03T02:44:25;101115.95;;;-0.58;76.20
75536;BME280;64119;52.070;20.804;2023-04-03T02:46:53;101114.73;;;-0.61;76.30
75536;BME280;64119;52.070;20.804;2023-04-03T02:49:21;101121.92;;;-0.62;76.21
75536;BME280;64119;52.070;20.804;2023-04-03T02:51:49;101121.89;;;-0.61;76.06
75536;BME280;64119;52.070;20.804;2023-04-03T02:54:16;101121.80;;;-0.62;76.16
75536;BME280;64119;52.070;20.804;2023-04-03T02:56:47;101122.58;;;-0.66;76.20
75536;BME280;64119;52.070;20.804;2023-04-03T02:59:15;101123.61;;;-0.69;76.48
75536;BME280;64119;52.070;20.804;2023-04-03T03:01:45;101121.61;;;-0.73;76.04
75536;BME280;64119;52.070;20.804;2023-04-03T03:04:13;101122.39;;;-0.75;76.50
75536;BME280;64119;52.070;20.804;2023-04-03T03:06:41;101119.77;;;-0.76;76.25
75536;BME280;64119;52.070;20.804;2023-04-03T03:09:11;101119.36;;;-0.78;76.16
75536;BME280;64119;52.070;20.804;2023-04-03T03:11:42;101120.27;;;-0.79;76.01
75536;BME280;64119;52.070;20.804;2023-04-03T03:14:10;101122.98;;;-0.81;76.34
75536;BME280;64119;52.070;20.804;2023-04-03T03:16:38;101123.95;;;-0.82;76.32
75536;BME280;64119;52.070;20.804;2023-04-03T03:19:06;101126.17;;;-0.84;76.56
75536;BME280;64119;52.070;20.804;2023-04-03T03:21:34;101126.23;;;-0.85;76.53
75536;BME280;64119;52.070;20.804;2023-04-03T03:24:02;101128.88;;;-0.88;76.56
75536;BME280;64119;52.070;20.804;2023-04-03T03:26:30;101129.05;;;-0.91;76.65
75536;BME280;64119;52.070;20.804;2023-04-03T03:28:58;101133.86;;;-0.93;76.96
75536;BME280;64119;52.070;20.804;2023-04-03T03:31:26;101132.83;;;-0.93;76.73
75536;BME280;64119;52.070;20.804;2023-04-03T03:33:54;101137.10;;;-0.95;76.57
75536;BME280;64119;52.070;20.804;2023-04-03T03:36:22;101137.95;;;-0.97;76.72
75536;BME280;64119;52.070;20.804;2023-04-03T03:38:50;101134.48;;;-1.00;76.81
75536;BME280;64119;52.070;20.804;2023-04-03T03:41:18;101137.98;;;-1.03;77.00
75536;BME280;64119;52.070;20.804;2023-04-03T03:43:47;101136.73;;;-1.06;76.86
75536;BME280;64119;52.070;20.804;2023-04-03T03:46:15;101137.48;;;-1.06;76.87
75536;BME280;64119;52.070;20.804;2023-04-03T03:48:44;101136.95;;;-1.09;76.91
75536;BME280;64119;52.070;20.804;2023-04-03T03:51:11;101141.30;;;-1.09;76.79
75536;BME280;64119;52.070;20.804;2023-04-03T03:53:39;101140.50;;;-1.13;76.95
75536;BME280;64119;52.070;20.804;2023-04-03T03:56:10;101144.73;;;-1.14;77.38
75536;BME280;64119;52.070;20.804;2023-04-03T03:58:38;101148.32;;;-1.16;77.21
75536;BME280;64119;52.070;20.804;2023-04-03T04:01:07;101149.15;;;-1.18;77.02
75536;BME280;64119;52.070;20.804;2023-04-03T04:03:40;101153.11;;;-1.20;77.43
75536;BME280;64119;52.070;20.804;2023-04-03T04:06:08;101151.42;;;-1.21;77.15
75536;BME280;64119;52.070;20.804;2023-04-03T04:08:37;101153.09;;;-1.23;77.27
75536;BME280;64119;52.070;20.804;2023-04-03T04:11:06;101153.06;;;-1.25;77.33
75536;BME280;64119;52.070;20.804;2023-04-03T04:13:35;101151.43;;;-1.27;77.20
75536;BME280;64119;52.070;20.804;2023-04-03T04:16:04;101155.19;;;-1.29;77.61
75536;BME280;64119;52.070;20.804;2023-04-03T04:18:33;101157.67;;;-1.29;77.46
75536;BME280;64119;52.070;20.804;2023-04-03T04:21:01;101158.48;;;-1.31;77.49
75536;BME280;64119;52.070;20.804;2023-04-03T04:23:29;101160.60;;;-1.32;77.46
75536;BME280;64119;52.070;20.804;2023-04-03T04:25:58;101160.67;;;-1.33;77.35
75536;BME280;64119;52.070;20.804;2023-04-03T04:28:26;101166.35;;;-1.35;77.75
75536;BME280;64119;52.070;20.804;2023-04-03T04:30:54;101169.89;;;-1.37;77.65
75536;BME280;64119;52.070;20.804;2023-04-03T04:33:23;101172.70;;;-1.37;77.68
75536;BME280;64119;52.070;20.804;2023-04-03T04:35:50;101176.42;;;-1.39;78.05
75536;BME280;64119;52.070;20.804;2023-04-03T04:38:20;101182.99;;;-1.41;77.99
75536;BME280;64119;52.070;20.804;2023-04-03T04:40:48;101184.00;;;-1.41;77.91
75536;BME280;64119;52.070;20.804;2023-04-03T04:43:16;101185.81;;;-1.42;78.03
75536;BME280;64119;52.070;20.804;2023-04-03T04:45:45;101187.02;;;-1.42;78.11
75536;BME280;64119;52.070;20.804;2023-04-03T04:48:14;101186.29;;;-1.41;78.12
75536;BME280;64119;52.070;20.804;2023-04-03T04:50:42;101190.98;;;-1.41;78.24
75536;BME280;64119;52.070;20.804;2023-04-03T04:53:10;101194.92;;;-1.41;78.14
75536;BME280;64119;52.070;20.804;2023-04-03T04:55:37;101194.85;;;-1.39;78.04
75536;BME280;64119;52.070;20.804;2023-04-03T04:58:06;101197.08;;;-1.39;78.26
75536;BME280;64119;52.070;20.804;2023-04-03T05:00:35;101201.63;;;-1.36;77.96
75536;BME280;64119;52.070;20.804;2023-04-03T05:03:03;101201.45;;;-1.33;77.97
75536;BME280;64119;52.070;20.804;2023-04-03T05:05:33;101205.83;;;-1.31;77.89
75536;BME280;64119;52.070;20.804;2023-04-03T05:08:03;101203.04;;;-1.28;77.89
75536;BME280;64119;52.070;20.804;2023-04-03T05:10:32;101204.46;;;-1.23;77.60
75536;BME280;64119;52.070;20.804;2023-04-03T05:12:59;101208.01;;;-1.15;77.49
75536;BME280;64119;52.070;20.804;2023-04-03T05:15:27;101209.80;;;-1.08;77.42
75536;BME280;64119;52.070;20.804;2023-04-03T05:17:55;101211.17;;;-1.03;77.30
75536;BME280;64119;52.070;20.804;2023-04-03T05:20:23;101213.65;;;-0.98;76.97
75536;BME280;64119;52.070;20.804;2023-04-03T05:22:52;101218.65;;;-0.91;76.80
75536;BME280;64119;52.070;20.804;2023-04-03T05:25:20;101221.45;;;-0.86;76.79
75536;BME280;64119;52.070;20.804;2023-04-03T05:27:48;101224.36;;;-0.83;76.74
75536;BME280;64119;52.070;20.804;2023-04-03T05:30:17;101223.80;;;-0.77;75.97
75536;BME280;64119;52.070;20.804;2023-04-03T05:32:45;101231.83;;;-0.69;76.49
75536;BME280;64119;52.070;20.804;2023-04-03T05:35:19;101236.58;;;-0.59;76.05
75536;BME280;64119;52.070;20.804;2023-04-03T05:37:48;101231.40;;;-0.54;75.68
75536;BME280;64119;52.070;20.804;2023-04-03T05:40:17;101238.62;;;-0.53;75.24
75536;BME280;64119;52.070;20.804;2023-04-03T05:42:47;101238.27;;;-0.50;75.44
75536;BME280;64119;52.070;20.804;2023-04-03T05:45:16;101236.25;;;-0.49;75.38
75536;BME280;64119;52.070;20.804;2023-04-03T05:47:44;101238.05;;;-0.44;74.90
75536;BME280;64119;52.070;20.804;2023-04-03T05:50:12;101238.92;;;-0.33;75.42
75536;BME280;64119;52.070;20.804;2023-04-03T05:52:44;101239.04;;;-0.19;74.96
75536;BME280;64119;52.070;20.804;2023-04-03T05:55:13;101237.36;;;-0.12;74.09
75536;BME280;64119;52.070;20.804;2023-04-03T05:57:41;101237.55;;;-0.02;74.92
75536;BME280;64119;52.070;20.804;2023-04-03T06:00:12;101237.92;;;0.12;74.66
75536;BME280;64119;52.070;20.804;2023-04-03T06:02:42;101237.10;;;0.24;73.68
75536;BME280;64119;52.070;20.804;2023-04-03T06:05:15;101242.70;;;0.36;73.49
75536;BME280;64119;52.070;20.804;2023-04-03T06:07:43;101239.73;;;0.47;73.34
75536;BME280;64119;52.070;20.804;2023-04-03T06:10:12;101245.95;;;0.50;72.72
75536;BME280;64119;52.070;20.804;2023-04-03T06:12:41;101247.45;;;0.56;73.22
75536;BME280;64119;52.070;20.804;2023-04-03T06:15:09;101247.21;;;0.67;73.39
75536;BME280;64119;52.070;20.804;2023-04-03T06:17:39;101253.48;;;0.82;72.51
75536;BME280;64119;52.070;20.804;2023-04-03T06:20:08;101253.36;;;0.89;70.71
75536;BME280;64119;52.070;20.804;2023-04-03T06:22:37;101256.02;;;0.93;71.08
75536;BME280;64119;52.070;20.804;2023-04-03T06:25:06;101257.34;;;1.02;72.15
75536;BME280;64119;52.070;20.804;2023-04-03T06:27:33;101259.23;;;1.12;71.29
75536;BME280;64119;52.070;20.804;2023-04-03T06:30:02;101258.89;;;1.22;70.61
75536;BME280;64119;52.070;20.804;2023-04-03T06:32:29;101258.71;;;1.27;70.62
75536;BME280;64119;52.070;20.804;2023-04-03T06:34:57;101257.27;;;1.32;70.16
75536;BME280;64119;52.070;20.804;2023-04-03T06:37:25;101260.70;;;1.33;68.91
75536;BME280;64119;52.070;20.804;2023-04-03T06:39:53;101264.50;;;1.39;69.72
75536;BME280;64119;52.070;20.804;2023-04-03T06:42:22;101261.44;;;1.48;69.59
75536;BME280;64119;52.070;20.804;2023-04-03T06:44:59;101271.88;;;1.55;69.71
75536;BME280;64119;52.070;20.804;2023-04-03T06:47:27;101266.71;;;1.66;70.20
75536;BME280;64119;52.070;20.804;2023-04-03T06:49:55;101274.90;;;1.78;69.79
75536;BME280;64119;52.070;20.804;2023-04-03T06:52:23;101280.97;;;1.81;68.25
75536;BME280;64119;52.070;20.804;2023-04-03T06:54:51;101280.42;;;1.79;68.68
75536;BME280;64119;52.070;20.804;2023-04-03T06:57:24;101282.13;;;1.87;69.43
75536;BME280;64119;52.070;20.804;2023-04-03T06:59:52;101277.48;;;1.95;68.78
75536;BME280;64119;52.070;20.804;2023-04-03T07:02:20;101276.09;;;2.00;68.17
75536;BME280;64119;52.070;20.804;2023-04-03T07:04:48;101280.75;;;2.08;69.28
75536;BME280;64119;52.070;20.804;2023-04-03T07:07:16;101283.48;;;2.25;68.65
75536;BME280;64119;52.070;20.804;2023-04-03T07:09:45;101286.30;;;2.34;67.23
75536;BME280;64119;52.070;20.804;2023-04-03T07:12:15;101290.34;;;2.36;67.33
75536;BME280;64119;52.070;20.804;2023-04-03T07:14:43;101293.05;;;2.47;68.20
75536;BME280;64119;52.070;20.804;2023-04-03T07:17:11;101292.51;;;2.63;67.27
75536;BME280;64119;52.070;20.804;2023-04-03T07:19:39;101295.42;;;2.76;67.58
75536;BME280;64119;52.070;20.804;2023-04-03T07:22:07;101294.73;;;2.85;67.28
75536;BME280;64119;52.070;20.804;2023-04-03T07:24:35;101298.07;;;2.89;65.62
75536;BME280;64119;52.070;20.804;2023-04-03T07:27:03;101300.29;;;2.92;66.00
75536;BME280;64119;52.070;20.804;2023-04-03T07:29:31;101303.49;;;3.00;65.38
75536;BME280;64119;52.070;20.804;2023-04-03T07:31:59;101304.98;;;3.10;65.16
75536;BME280;64119;52.070;20.804;2023-04-03T07:34:27;101309.07;;;3.14;64.39
75536;BME280;64119;52.070;20.804;2023-04-03T07:36:55;101311.36;;;3.24;65.06
75536;BME280;64119;52.070;20.804;2023-04-03T07:39:24;101310.70;;;3.31;64.61
75536;BME280;64119;52.070;20.804;2023-04-03T07:41:52;101311.13;;;3.39;63.73
75536;BME280;64119;52.070;20.804;2023-04-03T07:44:20;101318.40;;;3.53;64.62
75536;BME280;64119;52.070;20.804;2023-04-03T07:46:48;101312.98;;;3.73;63.88
75536;BME280;64119;52.070;20.804;2023-04-03T07:49:17;101317.83;;;3.86;63.72
75536;BME280;64119;52.070;20.804;2023-04-03T07:51:45;101317.30;;;3.95;62.28
75536;BME280;64119;52.070;20.804;2023-04-03T07:54:14;101306.52;;;3.94;62.95
75536;BME280;64119;52.070;20.804;2023-04-03T07:56:42;101310.58;;;4.02;62.43
75536;BME280;64119;52.070;20.804;2023-04-03T07:59:10;101303.85;;;3.97;61.46
75536;BME280;64119;52.070;20.804;2023-04-03T08:01:39;101301.90;;;4.02;62.43
75536;BME280;64119;52.070;20.804;2023-04-03T08:04:06;101309.96;;;4.10;61.92
75536;BME280;64119;52.070;20.804;2023-04-03T08:06:34;101303.80;;;4.25;61.27
75536;BME280;64119;52.070;20.804;2023-04-03T08:09:16;101308.27;;;4.51;61.60
75536;BME280;64119;52.070;20.804;2023-04-03T08:11:45;101304.88;;;4.54;58.84
75536;BME280;64119;52.070;20.804;2023-04-03T08:14:13;101306.05;;;4.28;58.71
75536;BME280;64119;52.070;20.804;2023-04-03T08:16:45;101308.36;;;4.31;59.00
75536;BME280;64119;52.070;20.804;2023-04-03T08:19:14;101314.89;;;4.44;59.48
75536;BME280;64119;52.070;20.804;2023-04-03T08:21:55;101312.53;;;4.57;60.06
75536;BME280;64119;52.070;20.804;2023-04-03T08:24:24;101313.45;;;4.69;58.59
75536;BME280;64119;52.070;20.804;2023-04-03T08:26:52;101317.33;;;4.81;58.95
75536;BME280;64119;52.070;20.804;2023-04-03T08:29:20;101318.70;;;5.06;59.14
75536;BME280;64119;52.070;20.804;2023-04-03T08:31:49;101316.26;;;5.18;56.97
75536;BME280;64119;52.070;20.804;2023-04-03T08:34:18;101314.80;;;5.61;58.11
75536;BME280;64119;52.070;20.804;2023-04-03T08:36:47;101310.73;;;6.11;56.67
75536;BME280;64119;52.070;20.804;2023-04-03T08:39:14;101315.38;;;6.47;55.28
75536;BME280;64119;52.070;20.804;2023-04-03T08:41:43;101317.42;;;6.57;53.05
75536;BME280;64119;52.070;20.804;2023-04-03T08:44:46;101317.84;;;6.57;53.77
75536;BME280;64119;52.070;20.804;2023-04-03T08:47:24;101319.19;;;6.73;51.19
75536;BME280;64119;52.070;20.804;2023-04-03T08:49:57;101317.84;;;6.87;51.41
75536;BME280;64119;52.070;20.804;2023-04-03T08:52:42;101318.44;;;6.94;49.90
75536;BME280;64119;52.070;20.804;2023-04-03T08:55:26;101323.27;;;6.62;50.52
75536;BME280;64119;52.070;20.804;2023-04-03T08:58:02;101322.66;;;6.86;50.30
75536;BME280;64119;52.070;20.804;2023-04-03T09:00:49;101324.30;;;7.29;50.28
75536;BME280;64119;52.070;20.804;2023-04-03T09:03:19;101321.46;;;6.92;47.84
75536;BME280;64119;52.070;20.804;2023-04-03T09:11:42;101324.29;;;6.30;49.26
75536;BME280;64119;52.070;20.804;2023-04-03T09:16:27;101315.61;;;7.35;47.08
75536;BME280;64119;52.070;20.804;2023-04-03T09:21:47;101322.56;;;8.32;48.71
75536;BME280;64119;52.070;20.804;2023-04-03T09:24:16;101316.82;;;8.33;46.21
75536;BME280;64119;52.070;20.804;2023-04-03T09:26:46;101316.72;;;7.69;44.79
75536;BME280;64119;52.070;20.804;2023-04-03T09:29:19;101316.67;;;7.61;45.73
75536;BME280;64119;52.070;20.804;2023-04-03T09:31:49;101320.77;;;7.36;45.38
75536;BME280;64119;52.070;20.804;2023-04-03T09:34:30;101317.55;;;7.37;45.09
75536;BME280;64119;52.070;20.804;2023-04-03T09:37:00;101316.70;;;7.87;45.83
75536;BME280;64119;52.070;20.804;2023-04-03T09:39:53;101316.56;;;8.46;47.27
75536;BME280;64119;52.070;20.804;2023-04-03T09:42:24;101318.06;;;8.82;44.70
75536;BME280;64119;52.070;20.804;2023-04-03T09:45:04;101320.15;;;9.05;43.27
75536;BME280;64119;52.070;20.804;2023-04-03T09:47:35;101320.92;;;9.45;43.30
75536;BME280;64119;52.070;20.804;2023-04-03T09:50:24;101322.18;;;9.50;43.21
75536;BME280;64119;52.070;20.804;2023-04-03T09:52:51;101317.48;;;9.24;42.22
75536;BME280;64119;52.070;20.804;2023-04-03T09:55:22;101322.27;;;9.17;40.51
75536;BME280;64119;52.070;20.804;2023-04-03T09:58:02;101311.61;;;9.80;42.90
75536;BME280;64119;52.070;20.804;2023-04-03T10:00:35;101320.01;;;10.04;41.26
75536;BME280;64119;52.070;20.804;2023-04-03T10:03:04;101327.83;;;9.57;41.20
75536;BME280;64119;52.070;20.804;2023-04-03T10:05:34;101328.89;;;8.80;40.97
75536;BME280;64119;52.070;20.804;2023-04-03T10:10:47;101326.67;;;9.17;43.27
75536;BME280;64119;52.070;20.804;2023-04-03T10:13:20;101319.56;;;9.90;42.15
75536;BME280;64119;52.070;20.804;2023-04-03T10:16:12;101325.11;;;10.34;41.34
75536;BME280;64119;52.070;20.804;2023-04-03T10:18:46;101327.64;;;9.65;40.77
75536;BME280;64119;52.070;20.804;2023-04-03T10:21:38;101321.08;;;8.80;38.78
75536;BME280;64119;52.070;20.804;2023-04-03T10:24:10;101317.84;;;8.17;40.81
75536;BME280;64119;52.070;20.804;2023-04-03T10:38:04;101324.21;;;7.86;44.36
75536;BME280;64119;52.070;20.804;2023-04-03T10:40:47;101318.73;;;8.35;42.69
75536;BME280;64119;52.070;20.804;2023-04-03T10:43:29;101318.80;;;8.52;43.31
75536;BME280;64119;52.070;20.804;2023-04-03T10:46:10;101318.86;;;8.92;42.44
75536;BME280;64119;52.070;20.804;2023-04-03T10:48:59;101312.11;;;9.70;42.26
75536;BME280;64119;52.070;20.804;2023-04-03T10:51:46;101302.98;;;10.43;39.28
75536;BME280;64119;52.070;20.804;2023-04-03T10:54:26;101300.13;;;10.92;38.80
75536;BME280;64119;52.070;20.804;2023-04-03T10:57:01;101302.83;;;11.22;38.65
75536;BME280;64119;52.070;20.804;2023-04-03T10:59:59;101303.17;;;11.32;37.08
75536;BME280;64119;52.070;20.804;2023-04-03T11:02:37;101299.05;;;11.45;37.32
75536;BME280;64119;52.070;20.804;2023-04-03T11:05:26;101298.95;;;11.80;37.46
75536;BME280;64119;52.070;20.804;2023-04-03T11:07:57;101300.17;;;11.34;36.54
75536;BME280;64119;52.070;20.804;2023-04-03T11:13:26;101297.66;;;10.21;37.96
75536;BME280;64119;52.070;20.804;2023-04-03T11:15:56;101304.39;;;9.50;38.59
75536;BME280;64119;52.070;20.804;2023-04-03T11:21:32;101303.18;;;8.12;40.45
75536;BME280;64119;52.070;20.804;2023-04-03T11:24:05;101301.15;;;7.70;41.19
75536;BME280;64119;52.070;20.804;2023-04-03T11:26:41;101303.20;;;7.47;42.36
75536;BME280;64119;52.070;20.804;2023-04-03T11:29:14;101301.52;;;7.35;42.07
75536;BME280;64119;52.070;20.804;2023-04-03T11:34:53;101296.48;;;8.16;41.90
75536;BME280;64119;52.070;20.804;2023-04-03T11:37:44;101293.37;;;8.99;40.09
75536;BME280;64119;52.070;20.804;2023-04-03T11:45:50;101283.48;;;10.25;37.53
75536;BME280;64119;52.070;20.804;2023-04-03T11:50:51;101287.16;;;9.08;38.40
75536;BME280;64119;52.070;20.804;2023-04-03T11:53:33;101284.16;;;8.65;39.56
75536;BME280;64119;52.070;20.804;2023-04-03T11:58:34;101287.92;;;7.79;41.52
75536;BME280;64119;52.070;20.804;2023-04-03T12:01:04;101286.80;;;7.74;41.96
75536;BME280;64119;52.070;20.804;2023-04-03T12:35:28;101280.21;;;7.13;43.58
75536;BME280;64119;52.070;20.804;2023-04-03T12:38:05;101277.30;;;7.47;43.48
75536;BME280;64119;52.070;20.804;2023-04-03T12:46:22;101277.45;;;7.36;43.27
75536;BME280;64119;52.070;20.804;2023-04-03T12:48:54;101272.23;;;7.58;42.47
75536;BME280;64119;52.070;20.804;2023-04-03T12:51:27;101276.91;;;7.55;42.54
75536;BME280;64119;52.070;20.804;2023-04-03T12:54:01;101285.10;;;7.81;41.97
75536;BME280;64119;52.070;20.804;2023-04-03T12:56:32;101280.69;;;8.04;41.26
75536;BME280;64119;52.070;20.804;2023-04-03T12:59:24;101282.91;;;8.14;41.16
75536;BME280;64119;52.070;20.804;2023-04-03T13:02:02;101283.13;;;7.97;41.11
75536;BME280;64119;52.070;20.804;2023-04-03T13:04:31;101278.21;;;7.83;40.68
75536;BME280;64119;52.070;20.804;2023-04-03T13:07:00;101278.84;;;7.82;40.99
75536;BME280;64119;52.070;20.804;2023-04-03T13:09:30;101274.04;;;8.02;40.81
75536;BME280;64119;52.070;20.804;2023-04-03T13:12:02;101277.33;;;8.30;40.49
75536;BME280;64119;52.070;20.804;2023-04-03T13:14:31;101275.23;;;8.37;39.92
75536;BME280;64119;52.070;20.804;2023-04-03T13:17:14;101273.76;;;8.37;40.58
75536;BME280;64119;52.070;20.804;2023-04-03T13:19:44;101268.91;;;8.11;39.67
75536;BME280;64119;52.070;20.804;2023-04-03T13:25:05;101275.63;;;7.32;39.60
75536;BME280;64119;52.070;20.804;2023-04-03T13:27:34;101273.73;;;7.15;40.66
75536;BME280;64119;52.070;20.804;2023-04-03T13:30:03;101270.67;;;7.10;40.06
75536;BME280;64119;52.070;20.804;2023-04-03T13:32:32;101272.84;;;7.24;40.51
75536;BME280;64119;52.070;20.804;2023-04-03T13:35:00;101265.14;;;7.60;40.88
75536;BME280;64119;52.070;20.804;2023-04-03T13:37:54;101267.79;;;7.65;39.46
75536;BME280;64119;52.070;20.804;2023-04-03T13:40:23;101270.16;;;7.41;40.40
75536;BME280;64119;52.070;20.804;2023-04-03T13:43:01;101269.75;;;7.10;40.17
75536;BME280;64119;52.070;20.804;2023-04-03T13:45:31;101266.55;;;6.79;40.56
75536;BME280;64119;52.070;20.804;2023-04-03T13:48:18;101268.39;;;6.57;41.84
75536;BME280;64119;52.070;20.804;2023-04-03T13:50:53;101270.12;;;6.42;42.06
75536;BME280;64119;52.070;20.804;2023-04-03T13:53:22;101270.48;;;6.27;41.71
75536;BME280;64119;52.070;20.804;2023-04-03T13:56:00;101271.84;;;6.28;42.01
75536;BME280;64119;52.070;20.804;2023-04-03T13:58:33;101273.48;;;6.27;42.28
75536;BME280;64119;52.070;20.804;2023-04-03T14:01:50;101272.31;;;6.38;42.63
75536;BME280;64119;52.070;20.804;2023-04-03T14:04:25;101270.55;;;6.38;43.20
75536;BME280;64119;52.070;20.804;2023-04-03T14:06:56;101266.60;;;6.33;43.39
75536;BME280;64119;52.070;20.804;2023-04-03T14:09:26;101271.67;;;6.26;43.79
75536;BME280;64119;52.070;20.804;2023-04-03T14:11:59;101266.69;;;6.17;42.53
75536;BME280;64119;52.070;20.804;2023-04-03T14:14:31;101267.50;;;6.10;42.60
75536;BME280;64119;52.070;20.804;2023-04-03T14:17:01;101270.71;;;5.98;42.54
75536;BME280;64119;52.070;20.804;2023-04-03T14:19:33;101270.77;;;5.89;42.80
75536;BME280;64119;52.070;20.804;2023-04-03T14:22:16;101271.25;;;5.81;43.13
75536;BME280;64119;52.070;20.804;2023-04-03T14:24:45;101269.66;;;6.03;43.24
75536;BME280;64119;52.070;20.804;2023-04-03T14:29:49;101266.70;;;6.03;42.65
75536;BME280;64119;52.070;20.804;2023-04-03T14:32:22;101265.52;;;5.97;43.05
75536;BME280;64119;52.070;20.804;2023-04-03T14:34:52;101269.02;;;5.85;42.96
75536;BME280;64119;52.070;20.804;2023-04-03T14:37:23;101269.64;;;5.78;43.80
75536;BME280;64119;52.070;20.804;2023-04-03T14:39:53;101271.34;;;5.71;43.27